createdAt,value
2022-09-16T00:00:47.659Z,3.88
2022-09-16T00:03:16.443Z,4.43
2022-09-16T00:05:51.537Z,4.57
2022-09-16T00:08:19.527Z,4.38
2022-09-16T00:10:46.328Z,4.82
2022-09-16T00:13:13.876Z,4.30
2022-09-16T00:15:49.119Z,4.05
2022-09-16T00:18:15.849Z,3.88
2022-09-16T00:20:47.246Z,4.72
2022-09-16T00:23:13.937Z,4.63
2022-09-16T00:25:41.060Z,3.97
2022-09-16T00:28:10.916Z,4.53
2022-09-16T00:30:42.557Z,4.38
2022-09-16T00:33:10.042Z,4.30
2022-09-16T00:35:36.726Z,4.30
2022-09-16T00:38:05.981Z,4.88
2022-09-16T00:40:32.860Z,4.40
2022-09-16T00:43:00.303Z,4.40
2022-09-16T00:45:31.521Z,4.63
2022-09-16T00:48:06.912Z,4.70
2022-09-16T00:50:48.252Z,4.90
2022-09-16T00:53:20.672Z,4.97
2022-09-16T00:55:48.237Z,4.50
2022-09-16T00:58:28.188Z,4.60
2022-09-16T01:00:55.055Z,4.90
2022-09-16T01:03:23.189Z,4.88
2022-09-16T01:05:50.131Z,5.05
2022-09-16T01:08:16.749Z,4.70
2022-09-16T01:10:46.020Z,4.50
2022-09-16T01:13:15.492Z,4.53
2022-09-16T01:16:06.446Z,4.50
2022-09-16T01:18:49.930Z,4.43
2022-09-16T01:21:31.329Z,4.18
2022-09-16T01:24:13.624Z,3.83
2022-09-16T01:27:04.931Z,4.05
2022-09-16T01:29:53.411Z,4.25
2022-09-16T01:32:38.766Z,4.25
2022-09-16T01:35:10.939Z,4.40
2022-09-16T01:38:00.716Z,4.47
2022-09-16T01:40:54.181Z,4.25
2022-09-16T01:43:27.901Z,4.20
2022-09-16T01:46:22.773Z,4.45
2022-09-16T01:49:15.649Z,4.57
2022-09-16T01:51:53.060Z,3.92
2022-09-16T01:54:32.094Z,3.55
2022-09-16T01:57:19.342Z,3.72
2022-09-16T02:00:07.662Z,4.50
2022-09-16T02:02:49.431Z,3.90
2022-09-16T02:05:38.826Z,3.42
2022-09-16T02:08:17.660Z,3.63
2022-09-16T02:10:50.970Z,4.03
2022-09-16T02:13:22.094Z,3.70
2022-09-16T02:15:53.661Z,3.33
2022-09-16T02:18:29.273Z,3.75
2022-09-16T02:20:59.083Z,3.20
2022-09-16T02:23:37.492Z,3.75
2022-09-16T02:26:06.473Z,3.50
2022-09-16T02:28:37.904Z,3.70
2022-09-16T02:31:08.050Z,3.50
2022-09-16T02:34:04.064Z,4.40
2022-09-16T02:36:32.234Z,3.85
2022-09-16T02:39:10.455Z,4.07
2022-09-16T02:41:41.953Z,3.80
2022-09-16T02:44:10.619Z,4.00
2022-09-16T02:46:52.216Z,3.53
2022-09-16T02:49:40.900Z,3.80
2022-09-16T02:52:07.483Z,3.75
2022-09-16T02:55:02.694Z,3.30
2022-09-16T02:57:29.721Z,3.08
2022-09-16T02:59:56.827Z,3.90
2022-09-16T03:02:26.011Z,3.40
2022-09-16T03:04:52.726Z,3.95
2022-09-16T03:07:19.478Z,3.55
2022-09-16T03:09:47.929Z,3.38
2022-09-16T03:12:17.352Z,3.60
2022-09-16T03:15:07.960Z,3.20
2022-09-16T03:17:53.182Z,3.15
2022-09-16T03:20:32.871Z,2.70
2022-09-16T03:23:20.713Z,3.05
2022-09-16T03:26:05.087Z,2.92
2022-09-16T03:28:54.702Z,3.15
2022-09-16T03:31:40.252Z,3.33
2022-09-16T03:34:33.669Z,3.30
2022-09-16T03:37:06.102Z,3.10
2022-09-16T03:39:33.656Z,2.97
2022-09-16T03:42:05.394Z,3.35
2022-09-16T03:44:36.838Z,3.75
2022-09-16T03:47:04.153Z,3.42
2022-09-16T03:49:30.785Z,3.20
2022-09-16T03:51:58.447Z,3.50
2022-09-16T03:54:27.695Z,3.15
2022-09-16T03:56:54.349Z,3.42
2022-09-16T03:59:21.002Z,3.30
2022-09-16T04:01:47.854Z,4.05
2022-09-16T04:04:14.659Z,3.70
2022-09-16T04:06:41.282Z,4.18
2022-09-16T04:09:08.710Z,3.50
2022-09-16T04:11:37.907Z,3.47
2022-09-16T04:14:05.739Z,3.80
2022-09-16T04:16:34.555Z,3.65
2022-09-16T04:19:01.327Z,3.90
2022-09-16T04:21:29.259Z,3.55
2022-09-16T04:23:55.927Z,4.50
2022-09-16T04:26:22.708Z,4.10
2022-09-16T04:28:51.884Z,3.58
2022-09-16T04:31:21.319Z,4.18
2022-09-16T04:33:48.020Z,3.95
2022-09-16T04:36:17.676Z,4.50
2022-09-16T04:38:46.002Z,4.47
2022-09-16T04:41:16.065Z,4.80
2022-09-16T04:43:45.181Z,4.43
2022-09-16T04:46:13.151Z,4.10
2022-09-16T04:48:39.860Z,4.25
2022-09-16T04:51:09.487Z,3.92
2022-09-16T04:53:37.303Z,4.18
2022-09-16T04:56:15.802Z,4.45
2022-09-16T04:58:47.223Z,3.97
2022-09-16T05:01:16.949Z,4.75
2022-09-16T05:03:46.169Z,4.55
2022-09-16T05:06:20.442Z,4.35
2022-09-16T05:08:51.175Z,4.40
2022-09-16T05:11:21.056Z,5.00
2022-09-16T05:13:48.242Z,4.30
2022-09-16T05:16:22.434Z,4.32
2022-09-16T05:18:51.309Z,6.00
2022-09-16T05:21:20.675Z,4.25
2022-09-16T05:23:48.232Z,4.53
2022-09-16T05:26:23.750Z,4.70
2022-09-16T05:28:51.245Z,4.57
2022-09-16T05:31:22.190Z,4.57
2022-09-16T05:34:04.636Z,4.60
2022-09-16T05:36:34.733Z,5.22
2022-09-16T05:39:22.244Z,4.68
2022-09-16T05:41:50.260Z,4.75
2022-09-16T05:44:17.030Z,5.70
2022-09-16T05:46:43.834Z,5.07
2022-09-16T05:49:11.170Z,4.70
2022-09-16T05:51:39.851Z,4.97
2022-09-16T05:54:06.905Z,5.07
2022-09-16T05:56:33.717Z,4.97
2022-09-16T05:59:01.108Z,4.93
2022-09-16T06:01:31.090Z,5.70
2022-09-16T06:03:58.289Z,4.47
2022-09-16T06:06:33.893Z,4.50
2022-09-16T06:09:07.107Z,4.35
2022-09-16T06:11:40.078Z,4.30
2022-09-16T06:14:07.729Z,5.80
2022-09-16T06:16:35.074Z,4.90
2022-09-16T06:19:03.803Z,5.13
2022-09-16T06:21:30.819Z,4.45
2022-09-16T06:24:01.199Z,3.97
2022-09-16T06:26:30.397Z,5.20
2022-09-16T06:28:57.078Z,4.70
2022-09-16T06:31:26.357Z,5.28
2022-09-16T06:33:54.131Z,5.25
2022-09-16T06:36:24.002Z,4.97
2022-09-16T06:38:51.310Z,4.47
2022-09-16T06:41:19.815Z,4.90
2022-09-16T06:43:47.276Z,4.72
2022-09-16T06:46:16.734Z,4.05
2022-09-16T06:48:48.296Z,4.22
2022-09-16T06:51:17.928Z,3.65
2022-09-16T06:53:45.681Z,4.20
2022-09-16T06:56:17.027Z,4.00
2022-09-16T06:58:47.931Z,3.63
2022-09-16T07:01:29.587Z,3.75
2022-09-16T07:04:00.067Z,4.00
2022-09-16T07:09:16.910Z,4.43
2022-09-16T07:11:43.692Z,4.40
2022-09-16T07:14:10.561Z,4.00
2022-09-16T07:16:37.292Z,4.20
2022-09-16T07:19:04.969Z,4.00
2022-09-16T07:21:32.091Z,4.30
2022-09-16T07:24:01.660Z,3.70
2022-09-16T07:26:33.658Z,4.28
2022-09-16T07:29:03.718Z,3.67
2022-09-16T07:31:36.103Z,3.85
2022-09-16T07:34:04.931Z,3.70
2022-09-16T07:36:35.481Z,3.97
2022-09-16T07:39:03.053Z,4.00
2022-09-16T07:41:34.803Z,3.72
2022-09-16T07:44:02.475Z,3.42
2022-09-16T07:46:32.383Z,3.63
2022-09-16T07:49:00.572Z,3.35
2022-09-16T07:51:28.544Z,3.85
2022-09-16T07:54:00.928Z,3.83
2022-09-16T07:56:29.217Z,3.85
2022-09-16T07:58:57.273Z,3.63
2022-09-16T08:01:25.170Z,3.75
2022-09-16T08:03:52.364Z,2.85
2022-09-16T08:06:22.339Z,3.20
2022-09-16T08:08:51.742Z,3.45
2022-09-16T08:11:20.940Z,3.67
2022-09-16T08:13:50.462Z,3.53
2022-09-16T08:16:20.195Z,2.53
2022-09-16T08:18:50.120Z,2.25
2022-09-16T08:21:28.095Z,2.60
2022-09-16T08:23:55.779Z,2.35
2022-09-16T08:26:22.889Z,2.33
2022-09-16T08:29:08.318Z,2.15
2022-09-16T08:31:39.947Z,2.30
2022-09-16T08:34:06.805Z,2.45
2022-09-16T08:36:34.113Z,2.10
2022-09-16T08:39:01.395Z,2.05
2022-09-16T08:41:52.510Z,1.75
2022-09-16T08:44:22.133Z,2.10
2022-09-16T08:47:10.988Z,1.73
2022-09-16T08:49:46.757Z,2.13
2022-09-16T08:52:32.694Z,2.25
2022-09-16T08:55:08.247Z,1.80
2022-09-16T08:57:41.508Z,1.60
2022-09-16T09:00:20.545Z,1.98
2022-09-16T09:03:12.825Z,1.75
2022-09-16T09:05:49.867Z,2.13
2022-09-16T09:08:54.716Z,1.75
2022-09-16T09:11:34.525Z,2.35
2022-09-16T09:14:20.262Z,1.70
2022-09-16T09:16:58.955Z,2.17
2022-09-16T09:19:41.026Z,1.60
2022-09-16T09:22:19.990Z,1.65
2022-09-16T09:24:59.050Z,1.10
2022-09-16T09:27:58.981Z,1.30
2022-09-16T09:30:27.888Z,1.58
2022-09-16T09:33:34.101Z,1.50
2022-09-16T09:38:35.357Z,1.52
2022-09-16T09:41:52.782Z,1.85
2022-09-16T09:45:05.658Z,1.35
2022-09-16T09:47:51.109Z,1.23
2022-09-16T09:50:41.460Z,1.60
2022-09-16T09:53:32.895Z,1.55
2022-09-16T09:56:13.093Z,1.00
2022-09-16T09:59:01.352Z,1.08
2022-09-16T10:01:30.186Z,1.20
2022-09-16T10:04:00.411Z,1.15
2022-09-16T10:06:34.173Z,0.98
2022-09-16T10:09:01.775Z,1.25
2022-09-16T10:11:31.437Z,0.88
2022-09-16T10:14:00.767Z,0.82
2022-09-16T10:16:37.892Z,0.80
2022-09-16T10:19:21.941Z,0.80
2022-09-16T10:22:11.453Z,0.90
2022-09-16T10:24:40.625Z,1.10
2022-09-16T10:27:38.078Z,1.10
2022-09-16T10:33:12.767Z,0.90
2022-09-16T10:35:42.194Z,1.10
2022-09-16T10:38:14.475Z,1.27
2022-09-16T10:41:10.826Z,1.20
2022-09-16T10:43:39.718Z,0.70
2022-09-16T10:46:07.701Z,1.00
2022-09-16T10:48:35.601Z,1.55
2022-09-16T10:51:06.359Z,0.95
2022-09-16T10:53:39.276Z,0.85
2022-09-16T10:56:17.779Z,0.90
2022-09-16T10:58:44.730Z,1.00
2022-09-16T11:01:39.850Z,0.90
2022-09-16T11:04:19.633Z,1.00
2022-09-16T11:07:08.349Z,1.27
2022-09-16T11:09:35.009Z,1.00
2022-09-16T11:12:21.065Z,1.20
2022-09-16T11:15:10.592Z,1.30
2022-09-16T11:17:51.642Z,1.42
2022-09-16T11:20:30.411Z,1.10
2022-09-16T11:23:17.219Z,1.10
2022-09-16T11:25:57.112Z,1.20
2022-09-16T11:28:38.114Z,1.50
2022-09-16T11:31:26.551Z,1.02
2022-09-16T11:34:23.410Z,1.00
2022-09-16T11:37:04.739Z,1.40
2022-09-16T11:39:44.856Z,1.30
2022-09-16T11:42:35.047Z,1.10
2022-09-16T11:45:19.832Z,1.38
2022-09-16T11:48:16.440Z,1.27
2022-09-16T11:50:48.864Z,1.38
2022-09-16T11:53:48.508Z,1.65
2022-09-16T11:56:26.953Z,0.80
2022-09-16T11:59:22.208Z,1.17
2022-09-16T12:01:57.923Z,1.10
2022-09-16T12:04:53.184Z,1.15
2022-09-16T12:07:25.301Z,0.80
2022-09-16T12:10:14.068Z,1.30
2022-09-16T12:12:47.113Z,1.30
2022-09-16T12:15:31.597Z,1.05
2022-09-16T12:18:07.067Z,1.25
2022-09-16T12:20:38.429Z,1.10
2022-09-16T12:23:28.363Z,1.05
2022-09-16T12:25:57.723Z,0.80
2022-09-16T12:28:31.229Z,1.05
2022-09-16T12:31:35.919Z,1.00
2022-09-16T12:34:09.894Z,0.90
2022-09-16T12:36:40.684Z,0.90
2022-09-16T12:39:14.407Z,1.02
2022-09-16T12:44:36.107Z,0.90
2022-09-16T12:47:12.241Z,0.80
2022-09-16T12:50:09.920Z,1.00
2022-09-16T12:53:07.899Z,0.85
2022-09-16T12:55:49.728Z,1.10
2022-09-16T12:58:31.128Z,0.80
2022-09-16T13:01:19.101Z,1.02
2022-09-16T13:03:54.987Z,0.98
2022-09-16T13:06:26.869Z,0.82
2022-09-16T13:08:54.824Z,0.95
2022-09-16T13:12:16.511Z,0.98
2022-09-16T13:14:25.051Z,1.23
2022-09-16T13:16:59.558Z,1.05
2022-09-16T13:19:37.489Z,1.10
2022-09-16T13:22:26.407Z,1.00
2022-09-16T13:25:21.537Z,1.08
2022-09-16T13:28:25.283Z,0.95
2022-09-16T13:30:55.261Z,0.70
2022-09-16T13:33:28.944Z,0.90
2022-09-16T13:36:25.479Z,1.00
2022-09-16T13:38:54.396Z,1.10
2022-09-16T13:41:42.433Z,0.77
2022-09-16T13:44:36.135Z,0.70
2022-09-16T13:47:14.863Z,0.80
2022-09-16T13:49:54.928Z,0.80
2022-09-16T13:52:27.360Z,0.80
2022-09-16T13:55:12.301Z,0.90
2022-09-16T13:57:58.315Z,0.70
2022-09-16T14:01:00.123Z,0.60
2022-09-16T14:03:30.080Z,0.70
2022-09-16T14:06:26.619Z,0.50
2022-09-16T14:09:26.216Z,0.93
2022-09-16T14:12:20.873Z,0.80
2022-09-16T14:14:48.442Z,0.80
2022-09-16T14:17:26.006Z,0.75
2022-09-16T14:19:56.222Z,0.70
2022-09-16T14:22:25.695Z,0.77
2022-09-16T14:25:06.205Z,0.60
2022-09-16T14:27:43.716Z,0.82
2022-09-16T14:30:19.740Z,0.80
2022-09-16T14:32:51.307Z,0.95
2022-09-16T14:35:27.632Z,0.70
2022-09-16T14:38:01.876Z,0.77
2022-09-16T14:40:29.189Z,0.95
2022-09-16T14:43:00.282Z,0.70
2022-09-16T14:45:27.680Z,1.48
2022-09-16T14:47:56.872Z,0.57
2022-09-16T14:50:33.211Z,0.70
2022-09-16T14:53:24.244Z,0.73
2022-09-16T14:58:29.489Z,0.80
2022-09-16T15:01:10.591Z,0.52
2022-09-16T15:03:48.790Z,0.63
2022-09-16T15:06:24.930Z,0.80
2022-09-16T15:09:08.270Z,0.63
2022-09-16T15:11:49.177Z,0.70
2022-09-16T15:14:17.867Z,0.65
2022-09-16T15:16:50.767Z,0.93
2022-09-16T15:19:25.292Z,0.75
2022-09-16T15:21:52.677Z,0.77
2022-09-16T15:24:28.846Z,0.80
2022-09-16T15:26:56.271Z,0.80
2022-09-16T15:29:22.898Z,0.85
2022-09-16T15:31:50.772Z,0.70
2022-09-16T15:34:22.079Z,0.70
2022-09-16T15:36:53.185Z,0.95
2022-09-16T15:39:24.481Z,0.40
2022-09-16T15:42:27.839Z,0.60
2022-09-16T15:45:00.043Z,0.60
2022-09-16T15:47:29.737Z,0.50
2022-09-16T15:50:00.860Z,0.70
2022-09-16T15:52:32.680Z,0.68
2022-09-16T15:55:08.094Z,0.55
2022-09-16T15:57:34.747Z,0.60
2022-09-16T16:00:14.742Z,0.45
2022-09-16T16:02:53.449Z,0.68
2022-09-16T16:05:29.529Z,0.50
2022-09-16T16:08:04.983Z,0.60
2022-09-16T16:10:39.985Z,0.30
2022-09-16T16:13:09.281Z,0.40
2022-09-16T16:15:38.867Z,0.40
2022-09-16T16:18:10.716Z,0.52
2022-09-16T16:20:40.291Z,0.70
2022-09-16T16:23:07.026Z,0.30
2022-09-16T16:25:34.028Z,0.40
2022-09-16T16:28:00.941Z,0.40
2022-09-16T16:30:27.592Z,0.73
2022-09-16T16:32:54.266Z,0.70
2022-09-16T16:35:20.960Z,0.40
2022-09-16T16:37:49.900Z,0.50
2022-09-16T16:40:16.925Z,0.30
2022-09-16T16:42:46.617Z,0.50
2022-09-16T16:45:14.193Z,0.35
2022-09-16T16:47:42.172Z,0.68
2022-09-16T16:50:11.598Z,0.40
2022-09-16T16:52:40.765Z,0.50
2022-09-16T16:55:10.668Z,0.50
2022-09-16T16:57:38.997Z,0.50
2022-09-16T17:00:08.697Z,0.50
2022-09-16T17:02:35.545Z,0.50
2022-09-16T17:05:02.394Z,0.47
2022-09-16T17:07:29.729Z,0.40
2022-09-16T17:09:58.623Z,0.38
2022-09-16T17:12:26.723Z,0.50
2022-09-16T17:14:56.113Z,0.50
2022-09-16T17:17:30.507Z,0.30
2022-09-16T17:19:57.987Z,0.50
2022-09-16T17:22:24.723Z,0.40
2022-09-16T17:24:51.814Z,0.50
2022-09-16T17:27:20.647Z,0.40
2022-09-16T17:29:47.389Z,0.60
2022-09-16T17:32:16.425Z,0.38
2022-09-16T17:34:43.231Z,0.47
2022-09-16T17:37:14.578Z,0.45
2022-09-16T17:39:41.485Z,0.40
2022-09-16T17:42:08.373Z,0.40
2022-09-16T17:44:35.334Z,0.50
2022-09-16T17:47:07.730Z,0.50
2022-09-16T17:49:36.877Z,0.70
2022-09-16T17:52:03.674Z,0.50
2022-09-16T17:54:32.915Z,0.60
2022-09-16T17:56:59.552Z,0.70
2022-09-16T17:59:28.877Z,0.80
2022-09-16T18:01:57.918Z,0.70
2022-09-16T18:04:24.728Z,0.98
2022-09-16T18:06:51.487Z,0.80
2022-09-16T18:09:18.321Z,0.98
2022-09-16T18:11:45.103Z,0.60
2022-09-16T18:14:19.065Z,0.80
2022-09-16T18:16:50.350Z,0.70
2022-09-16T18:19:17.049Z,0.75
2022-09-16T18:21:43.665Z,0.82
2022-09-16T18:24:13.023Z,0.90
2022-09-16T18:26:42.008Z,0.90
2022-09-16T18:29:12.045Z,0.60
2022-09-16T18:31:44.578Z,0.60
2022-09-16T18:34:12.116Z,0.65
2022-09-16T18:36:39.505Z,0.57
2022-09-16T18:39:07.657Z,0.70
2022-09-16T18:41:39.138Z,0.70
2022-09-16T18:44:13.703Z,0.60
2022-09-16T18:46:42.706Z,0.73
2022-09-16T18:49:12.599Z,0.70
2022-09-16T18:51:45.132Z,0.70
2022-09-16T18:54:18.324Z,0.50
2022-09-16T18:56:48.220Z,0.70
2022-09-16T18:59:21.591Z,0.50
2022-09-16T19:01:55.880Z,0.68
2022-09-16T19:04:25.382Z,0.70
2022-09-16T19:06:54.166Z,0.70
2022-09-16T19:09:22.577Z,0.65
2022-09-16T19:11:50.044Z,0.82
2022-09-16T19:14:17.230Z,0.73
2022-09-16T19:16:45.737Z,1.10
2022-09-16T19:19:16.792Z,1.40
2022-09-16T19:21:43.835Z,1.27
2022-09-16T19:24:22.162Z,0.88
2022-09-16T19:26:51.464Z,0.70
2022-09-16T19:29:19.036Z,0.70
2022-09-16T19:31:48.205Z,0.63
2022-09-16T19:34:16.087Z,0.82
2022-09-16T19:36:43.530Z,0.63
2022-09-16T19:39:12.239Z,0.70
2022-09-16T19:41:40.216Z,0.82
2022-09-16T19:44:11.316Z,1.33
2022-09-16T19:46:39.396Z,0.80
2022-09-16T19:49:07.432Z,0.60
2022-09-16T19:51:34.534Z,0.70
2022-09-16T19:54:01.670Z,1.10
2022-09-16T19:56:33.710Z,0.80
2022-09-16T19:59:03.129Z,0.65
2022-09-16T20:01:34.784Z,0.50
2022-09-16T20:04:03.793Z,0.60
2022-09-16T20:06:34.667Z,0.60
2022-09-16T20:09:05.614Z,0.60
2022-09-16T20:11:36.202Z,0.63
2022-09-16T20:14:05.804Z,0.60
2022-09-16T20:16:35.974Z,0.70
2022-09-16T20:19:07.317Z,0.60
2022-09-16T20:21:35.275Z,0.95
2022-09-16T20:24:07.842Z,0.40
2022-09-16T20:26:35.766Z,0.60
2022-09-16T20:29:03.141Z,0.60
2022-09-16T20:31:35.458Z,0.60
2022-09-16T20:34:02.926Z,0.68
2022-09-16T20:36:31.073Z,0.50
2022-09-16T20:38:59.853Z,0.45
2022-09-16T20:41:29.440Z,0.40
2022-09-16T20:43:56.712Z,0.57
2022-09-16T20:46:31.463Z,0.60
2022-09-16T20:49:00.228Z,0.60
2022-09-16T20:51:31.610Z,0.40
2022-09-16T20:54:02.607Z,0.40
2022-09-16T20:56:38.052Z,0.40
2022-09-16T20:59:08.209Z,0.60
2022-09-16T21:01:38.476Z,0.50
2022-09-16T21:04:09.943Z,0.40
2022-09-16T21:06:39.262Z,0.55
2022-09-16T21:09:09.448Z,0.50
2022-09-16T21:11:37.324Z,0.60
2022-09-16T21:14:08.562Z,1.05
2022-09-16T21:16:37.414Z,0.30
2022-09-16T21:19:09.017Z,0.40
2022-09-16T21:21:42.049Z,0.68
2022-09-16T21:24:09.620Z,0.53
2022-09-16T21:26:38.383Z,0.50
2022-09-16T21:29:13.738Z,0.30
2022-09-16T21:31:41.908Z,0.50
2022-09-16T21:34:14.837Z,0.50
2022-09-16T21:36:44.569Z,0.50
2022-09-16T21:39:12.951Z,0.43
2022-09-16T21:41:39.606Z,0.30
2022-09-16T21:44:06.606Z,0.82
2022-09-16T21:46:45.079Z,0.30
2022-09-16T21:49:25.441Z,0.32
2022-09-16T21:51:53.891Z,0.63
2022-09-16T21:54:21.198Z,0.63
2022-09-16T21:56:48.842Z,0.68
2022-09-16T21:59:15.903Z,0.40
2022-09-16T22:01:42.660Z,0.40
2022-09-16T22:04:14.823Z,0.60
2022-09-16T22:06:42.389Z,0.47
2022-09-16T22:09:12.485Z,0.50
2022-09-16T22:11:40.873Z,0.60
2022-09-16T22:14:08.431Z,0.43
2022-09-16T22:16:37.714Z,0.50
2022-09-16T22:19:10.926Z,0.90
2022-09-16T22:21:41.545Z,0.60
2022-09-16T22:24:09.104Z,0.50
2022-09-16T22:26:38.712Z,0.70
2022-09-16T22:29:06.363Z,0.70
2022-09-16T22:31:35.830Z,0.60
2022-09-16T22:34:02.686Z,1.15
2022-09-16T22:36:34.198Z,0.60
2022-09-16T22:39:18.185Z,0.80
2022-09-16T22:41:44.954Z,0.50
2022-09-16T22:44:12.445Z,0.50
2022-09-16T22:46:42.786Z,0.77
2022-09-16T22:49:10.075Z,0.60
2022-09-16T22:51:37.184Z,0.68
2022-09-16T22:54:04.116Z,0.65
2022-09-16T22:56:33.286Z,0.50
2022-09-16T22:59:05.355Z,0.70
2022-09-16T23:01:35.463Z,0.73
2022-09-16T23:04:06.526Z,0.60
2022-09-16T23:06:34.667Z,0.77
2022-09-16T23:09:01.925Z,0.93
2022-09-16T23:11:31.193Z,0.73
2022-09-16T23:14:01.415Z,0.77
2022-09-16T23:16:31.813Z,0.65
2022-09-16T23:19:00.529Z,0.65
2022-09-16T23:21:27.446Z,0.90
2022-09-16T23:23:57.060Z,0.90
2022-09-16T23:26:26.366Z,0.77
2022-09-16T23:28:54.999Z,0.68
2022-09-16T23:31:27.481Z,0.75
2022-09-16T23:33:54.970Z,0.50
2022-09-16T23:36:25.779Z,0.63
2022-09-16T23:38:53.824Z,0.60
2022-09-16T23:41:24.626Z,0.82
2022-09-16T23:43:51.366Z,0.77
2022-09-16T23:46:22.920Z,0.77
2022-09-16T23:48:51.728Z,0.82
2022-09-16T23:51:27.203Z,0.82
2022-09-16T23:53:56.227Z,0.85
2022-09-16T23:56:25.558Z,0.70
2022-09-16T23:58:52.774Z,0.50
